Weather at Columbia Regional Airport

Public forecast

Using degrees Fahrenheit for public forecast. Weather courtesy of forecast.io.

Current aviation weather report (METAR) for Columbia Regional Airport

Retrieved 2021/01/21 22:54 UTC (41 minutes ago):

KCOU 212254Z 27006KT 10SM CLR 11/M05 A2993 RMK AO2 SLP137 T01061050

Aviation forecast (TAF) for Columbia Regional Airport

Retrieved 2021/01/21 18:24 UTC (5 hours ago):

TAF KCOU 211723Z 2118/2218 26008KT P6SM SCT250 FM220300 33009KT P6SM SCT250